EKSP/SKS METAR and TAF weather

Enter ICAO airport designator
Station Type Date Time Source
EKSP METAR 2020/09/19 01:50 UTC NOAA

EKSP 190150Z 20001KT 0800 R10/1300D R28/0750D FG VV001 02/02 Q1026


Station Type Date Time Source
EKSP Decoded METAR 2020/09/19 01:50 UTC NOAA

Skrydstrup, Denmark (EKSP) 55-14N 009-16E 47M
Sep 18, 2020 - 09:50 PM EDT / 2020.09.19 0150 UTC
Wind: from the SSW (200 degrees) at 1 MPH (1 KT):0
Visibility: less than 1 mile:0
Sky conditions: obscured
Weather: fog
Temperature: 35 F (2 C)
Dew Point: 35 F (2 C)
Relative Humidity: 100%
Pressure (altimeter): 30.30 in. Hg (1026 hPa)
ob: EKSP 190150Z 20001KT 0800 R10/1300D R28/0750D FG VV001 02/02 Q1026
cycle: 2

Station Type Date Time Source
EKSP TAF 2020/09/18 21:35 UTC NOAA

TAF EKSP 182013Z 1821/1921 VRB03KT 9999 SCT200
TEMPO 1822/1824 3000 MIFG BR
TEMPO 1900/1908 0300 FG VV001

Example: see airport list